sensor_id;sensor_type;location;lat;lon;timestamp;P1;durP1;ratioP1;P2;durP2;ratioP2
51495;SDS011;37572;52.094;4.870;2022-12-07T00:01:39;5.60;;;3.40;;
51495;SDS011;37572;52.094;4.870;2022-12-07T00:04:05;7.30;;;3.03;;
51495;SDS011;37572;52.094;4.870;2022-12-07T00:06:40;4.63;;;3.25;;
51495;SDS011;37572;52.094;4.870;2022-12-07T00:09:07;7.70;;;2.70;;
51495;SDS011;37572;52.094;4.870;2022-12-07T00:11:32;5.88;;;2.80;;
51495;SDS011;37572;52.094;4.870;2022-12-07T00:13:59;6.47;;;3.28;;
51495;SDS011;37572;52.094;4.870;2022-12-07T00:16:25;5.20;;;2.70;;
51495;SDS011;37572;52.094;4.870;2022-12-07T00:18:51;7.25;;;3.22;;
51495;SDS011;37572;52.094;4.870;2022-12-07T00:21:19;9.60;;;2.77;;
51495;SDS011;37572;52.094;4.870;2022-12-07T00:23:45;7.78;;;3.60;;
51495;SDS011;37572;52.094;4.870;2022-12-07T00:26:21;4.18;;;3.35;;
51495;SDS011;37572;52.094;4.870;2022-12-07T00:28:47;5.68;;;3.20;;
51495;SDS011;37572;52.094;4.870;2022-12-07T00:31:13;6.53;;;2.55;;
51495;SDS011;37572;52.094;4.870;2022-12-07T00:33:38;5.82;;;2.38;;
51495;SDS011;37572;52.094;4.870;2022-12-07T00:36:08;4.72;;;2.33;;
51495;SDS011;37572;52.094;4.870;2022-12-07T00:38:34;6.25;;;2.40;;
51495;SDS011;37572;52.094;4.870;2022-12-07T00:41:00;4.05;;;2.42;;
51495;SDS011;37572;52.094;4.870;2022-12-07T00:43:26;3.33;;;2.88;;
51495;SDS011;37572;52.094;4.870;2022-12-07T00:45:51;7.05;;;2.75;;
51495;SDS011;37572;52.094;4.870;2022-12-07T00:48:17;7.78;;;3.53;;
51495;SDS011;37572;52.094;4.870;2022-12-07T00:50:42;6.67;;;3.67;;
51495;SDS011;37572;52.094;4.870;2022-12-07T00:53:07;4.70;;;2.20;;
51495;SDS011;37572;52.094;4.870;2022-12-07T00:55:33;5.27;;;2.27;;
51495;SDS011;37572;52.094;4.870;2022-12-07T00:57:58;6.95;;;2.67;;
51495;SDS011;37572;52.094;4.870;2022-12-07T01:00:23;4.77;;;1.83;;
51495;SDS011;37572;52.094;4.870;2022-12-07T01:02:48;5.23;;;2.97;;
51495;SDS011;37572;52.094;4.870;2022-12-07T01:05:14;4.60;;;2.10;;
51495;SDS011;37572;52.094;4.870;2022-12-07T01:07:39;6.47;;;2.03;;
51495;SDS011;37572;52.094;4.870;2022-12-07T01:10:04;2.67;;;1.50;;
51495;SDS011;37572;52.094;4.870;2022-12-07T01:12:30;3.50;;;1.88;;
51495;SDS011;37572;52.094;4.870;2022-12-07T01:14:55;5.40;;;1.70;;
51495;SDS011;37572;52.094;4.870;2022-12-07T01:17:20;4.73;;;2.13;;
51495;SDS011;37572;52.094;4.870;2022-12-07T01:19:45;5.67;;;2.70;;
51495;SDS011;37572;52.094;4.870;2022-12-07T01:22:10;4.10;;;1.77;;
51495;SDS011;37572;52.094;4.870;2022-12-07T01:24:35;4.60;;;2.13;;
51495;SDS011;37572;52.094;4.870;2022-12-07T01:27:00;8.33;;;2.33;;
51495;SDS011;37572;52.094;4.870;2022-12-07T01:29:26;3.17;;;2.43;;
51495;SDS011;37572;52.094;4.870;2022-12-07T01:31:51;5.80;;;2.10;;
51495;SDS011;37572;52.094;4.870;2022-12-07T01:34:16;4.87;;;1.67;;
51495;SDS011;37572;52.094;4.870;2022-12-07T01:36:41;5.13;;;1.73;;
51495;SDS011;37572;52.094;4.870;2022-12-07T01:39:06;4.00;;;1.40;;
51495;SDS011;37572;52.094;4.870;2022-12-07T01:41:33;3.75;;;1.17;;
51495;SDS011;37572;52.094;4.870;2022-12-07T01:49:32;5.82;;;2.53;;
51495;SDS011;37572;52.094;4.870;2022-12-07T01:52:06;3.85;;;1.48;;
51495;SDS011;37572;52.094;4.870;2022-12-07T01:54:33;6.97;;;1.98;;
51495;SDS011;37572;52.094;4.870;2022-12-07T01:56:59;2.72;;;0.93;;
51495;SDS011;37572;52.094;4.870;2022-12-07T01:59:24;5.23;;;2.40;;
51495;SDS011;37572;52.094;4.870;2022-12-07T02:01:51;5.10;;;1.17;;
51495;SDS011;37572;52.094;4.870;2022-12-07T02:04:16;4.28;;;2.10;;
51495;SDS011;37572;52.094;4.870;2022-12-07T02:06:42;5.43;;;1.73;;
51495;SDS011;37572;52.094;4.870;2022-12-07T02:09:09;2.97;;;1.33;;
51495;SDS011;37572;52.094;4.870;2022-12-07T02:11:34;3.00;;;1.60;;
51495;SDS011;37572;52.094;4.870;2022-12-07T02:13:59;5.13;;;1.50;;
51495;SDS011;37572;52.094;4.870;2022-12-07T02:17:11;4.07;;;1.37;;
51495;SDS011;37572;52.094;4.870;2022-12-07T02:21:46;4.47;;;1.88;;
51495;SDS011;37572;52.094;4.870;2022-12-07T02:24:30;4.63;;;2.45;;
51495;SDS011;37572;52.094;4.870;2022-12-07T02:27:23;4.45;;;1.70;;
51495;SDS011;37572;52.094;4.870;2022-12-07T02:34:49;6.27;;;2.03;;
51495;SDS011;37572;52.094;4.870;2022-12-07T02:37:19;5.85;;;1.60;;
51495;SDS011;37572;52.094;4.870;2022-12-07T02:39:48;5.75;;;1.95;;
51495;SDS011;37572;52.094;4.870;2022-12-07T02:42:17;3.78;;;1.15;;
51495;SDS011;37572;52.094;4.870;2022-12-07T02:44:43;4.07;;;1.90;;
51495;SDS011;37572;52.094;4.870;2022-12-07T02:47:09;4.30;;;1.10;;
51495;SDS011;37572;52.094;4.870;2022-12-07T02:49:36;6.22;;;1.08;;
51495;SDS011;37572;52.094;4.870;2022-12-07T02:52:02;5.57;;;1.42;;
51495;SDS011;37572;52.094;4.870;2022-12-07T02:54:27;4.95;;;2.15;;
51495;SDS011;37572;52.094;4.870;2022-12-07T02:57:10;4.70;;;1.40;;
51495;SDS011;37572;52.094;4.870;2022-12-07T02:59:58;5.15;;;1.30;;
51495;SDS011;37572;52.094;4.870;2022-12-07T03:02:28;3.40;;;1.20;;
51495;SDS011;37572;52.094;4.870;2022-12-07T03:12:32;3.50;;;1.23;;
51495;SDS011;37572;52.094;4.870;2022-12-07T03:15:02;4.65;;;1.05;;
51495;SDS011;37572;52.094;4.870;2022-12-07T03:17:29;4.65;;;1.77;;
51495;SDS011;37572;52.094;4.870;2022-12-07T03:19:58;3.63;;;1.55;;
51495;SDS011;37572;52.094;4.870;2022-12-07T03:22:23;3.33;;;1.83;;
51495;SDS011;37572;52.094;4.870;2022-12-07T03:24:58;2.43;;;1.20;;
51495;SDS011;37572;52.094;4.870;2022-12-07T03:27:24;6.28;;;1.35;;
51495;SDS011;37572;52.094;4.870;2022-12-07T03:30:05;3.38;;;1.48;;
51495;SDS011;37572;52.094;4.870;2022-12-07T03:32:35;4.05;;;1.48;;
51495;SDS011;37572;52.094;4.870;2022-12-07T03:37:34;3.92;;;2.00;;
51495;SDS011;37572;52.094;4.870;2022-12-07T03:40:10;6.22;;;2.45;;
51495;SDS011;37572;52.094;4.870;2022-12-07T03:42:36;5.38;;;1.70;;
51495;SDS011;37572;52.094;4.870;2022-12-07T03:45:02;3.60;;;1.40;;
51495;SDS011;37572;52.094;4.870;2022-12-07T03:47:46;5.50;;;1.60;;
51495;SDS011;37572;52.094;4.870;2022-12-07T03:50:31;6.82;;;1.63;;
51495;SDS011;37572;52.094;4.870;2022-12-07T03:53:14;4.43;;;1.40;;
51495;SDS011;37572;52.094;4.870;2022-12-07T03:55:41;4.20;;;1.50;;
51495;SDS011;37572;52.094;4.870;2022-12-07T03:58:09;5.57;;;1.77;;
51495;SDS011;37572;52.094;4.870;2022-12-07T04:00:35;4.10;;;1.75;;
51495;SDS011;37572;52.094;4.870;2022-12-07T04:03:00;3.70;;;1.50;;
51495;SDS011;37572;52.094;4.870;2022-12-07T04:05:26;6.20;;;1.43;;
51495;SDS011;37572;52.094;4.870;2022-12-07T04:07:51;2.90;;;1.57;;
51495;SDS011;37572;52.094;4.870;2022-12-07T04:10:16;5.00;;;1.17;;
51495;SDS011;37572;52.094;4.870;2022-12-07T04:12:41;4.87;;;1.20;;
51495;SDS011;37572;52.094;4.870;2022-12-07T04:15:07;2.80;;;1.07;;
51495;SDS011;37572;52.094;4.870;2022-12-07T04:17:32;3.45;;;1.10;;
51495;SDS011;37572;52.094;4.870;2022-12-07T04:19:57;7.33;;;1.50;;
51495;SDS011;37572;52.094;4.870;2022-12-07T04:22:22;3.53;;;1.13;;
51495;SDS011;37572;52.094;4.870;2022-12-07T04:24:48;3.77;;;0.90;;
51495;SDS011;37572;52.094;4.870;2022-12-07T04:27:13;3.23;;;1.60;;
51495;SDS011;37572;52.094;4.870;2022-12-07T04:29:38;3.00;;;0.80;;
51495;SDS011;37572;52.094;4.870;2022-12-07T04:32:03;5.63;;;1.10;;
51495;SDS011;37572;52.094;4.870;2022-12-07T04:34:29;6.33;;;1.20;;
51495;SDS011;37572;52.094;4.870;2022-12-07T04:36:54;8.03;;;2.30;;
51495;SDS011;37572;52.094;4.870;2022-12-07T04:39:20;2.63;;;1.05;;
51495;SDS011;37572;52.094;4.870;2022-12-07T04:41:46;2.88;;;1.27;;
51495;SDS011;37572;52.094;4.870;2022-12-07T04:44:11;3.10;;;1.07;;
51495;SDS011;37572;52.094;4.870;2022-12-07T04:46:39;4.93;;;1.42;;
51495;SDS011;37572;52.094;4.870;2022-12-07T04:49:04;3.43;;;1.00;;
51495;SDS011;37572;52.094;4.870;2022-12-07T04:51:29;4.23;;;1.47;;
51495;SDS011;37572;52.094;4.870;2022-12-07T04:53:55;7.23;;;1.30;;
51495;SDS011;37572;52.094;4.870;2022-12-07T04:56:20;7.93;;;1.88;;
51495;SDS011;37572;52.094;4.870;2022-12-07T04:58:46;2.00;;;1.52;;
51495;SDS011;37572;52.094;4.870;2022-12-07T05:01:12;4.10;;;1.20;;
51495;SDS011;37572;52.094;4.870;2022-12-07T05:03:38;3.80;;;1.50;;
51495;SDS011;37572;52.094;4.870;2022-12-07T05:06:03;2.28;;;1.00;;
51495;SDS011;37572;52.094;4.870;2022-12-07T05:08:29;3.13;;;1.15;;
51495;SDS011;37572;52.094;4.870;2022-12-07T05:10:54;4.40;;;1.73;;
51495;SDS011;37572;52.094;4.870;2022-12-07T05:13:19;7.30;;;2.17;;
51495;SDS011;37572;52.094;4.870;2022-12-07T05:15:46;4.60;;;2.03;;
51495;SDS011;37572;52.094;4.870;2022-12-07T05:18:11;7.57;;;1.25;;
51495;SDS011;37572;52.094;4.870;2022-12-07T05:20:37;5.03;;;1.35;;
51495;SDS011;37572;52.094;4.870;2022-12-07T05:23:03;4.15;;;0.82;;
51495;SDS011;37572;52.094;4.870;2022-12-07T05:25:28;6.20;;;1.73;;
51495;SDS011;37572;52.094;4.870;2022-12-07T05:27:54;1.83;;;1.43;;
51495;SDS011;37572;52.094;4.870;2022-12-07T05:30:19;4.47;;;1.30;;
51495;SDS011;37572;52.094;4.870;2022-12-07T05:32:44;4.67;;;1.67;;
51495;SDS011;37572;52.094;4.870;2022-12-07T05:35:09;4.50;;;1.03;;
51495;SDS011;37572;52.094;4.870;2022-12-07T05:37:35;6.37;;;1.37;;
51495;SDS011;37572;52.094;4.870;2022-12-07T05:40:00;3.07;;;1.57;;
51495;SDS011;37572;52.094;4.870;2022-12-07T05:42:25;3.60;;;0.97;;
51495;SDS011;37572;52.094;4.870;2022-12-07T05:44:50;4.80;;;1.03;;
51495;SDS011;37572;52.094;4.870;2022-12-07T05:47:16;3.97;;;1.60;;
51495;SDS011;37572;52.094;4.870;2022-12-07T05:49:41;4.68;;;1.20;;
51495;SDS011;37572;52.094;4.870;2022-12-07T05:52:06;1.27;;;0.87;;
51495;SDS011;37572;52.094;4.870;2022-12-07T05:54:31;2.80;;;1.10;;
51495;SDS011;37572;52.094;4.870;2022-12-07T05:56:57;4.05;;;1.42;;
51495;SDS011;37572;52.094;4.870;2022-12-07T05:59:22;2.27;;;1.17;;
51495;SDS011;37572;52.094;4.870;2022-12-07T06:01:48;4.17;;;1.90;;
51495;SDS011;37572;52.094;4.870;2022-12-07T06:04:13;6.18;;;2.03;;
51495;SDS011;37572;52.094;4.870;2022-12-07T06:06:38;3.77;;;1.27;;
51495;SDS011;37572;52.094;4.870;2022-12-07T06:09:03;3.03;;;1.63;;
51495;SDS011;37572;52.094;4.870;2022-12-07T06:11:29;2.30;;;0.80;;
51495;SDS011;37572;52.094;4.870;2022-12-07T06:14:12;4.07;;;0.98;;
51495;SDS011;37572;52.094;4.870;2022-12-07T06:16:37;4.07;;;1.20;;
51495;SDS011;37572;52.094;4.870;2022-12-07T06:19:03;3.07;;;1.23;;
51495;SDS011;37572;52.094;4.870;2022-12-07T06:21:28;2.87;;;1.60;;
51495;SDS011;37572;52.094;4.870;2022-12-07T06:23:53;4.30;;;1.77;;
51495;SDS011;37572;52.094;4.870;2022-12-07T06:26:18;4.88;;;1.20;;
51495;SDS011;37572;52.094;4.870;2022-12-07T06:28:44;7.13;;;2.50;;
51495;SDS011;37572;52.094;4.870;2022-12-07T06:31:09;5.33;;;1.63;;
51495;SDS011;37572;52.094;4.870;2022-12-07T06:33:34;5.18;;;1.90;;
51495;SDS011;37572;52.094;4.870;2022-12-07T06:35:59;7.20;;;1.83;;
51495;SDS011;37572;52.094;4.870;2022-12-07T06:38:25;4.87;;;1.50;;
51495;SDS011;37572;52.094;4.870;2022-12-07T06:40:50;4.93;;;1.42;;
51495;SDS011;37572;52.094;4.870;2022-12-07T06:43:15;7.17;;;1.33;;
51495;SDS011;37572;52.094;4.870;2022-12-07T06:45:41;6.20;;;1.60;;
51495;SDS011;37572;52.094;4.870;2022-12-07T06:48:06;4.50;;;1.90;;
51495;SDS011;37572;52.094;4.870;2022-12-07T06:50:31;8.43;;;3.30;;
51495;SDS011;37572;52.094;4.870;2022-12-07T06:52:56;4.23;;;1.10;;
51495;SDS011;37572;52.094;4.870;2022-12-07T06:55:21;3.43;;;1.03;;
51495;SDS011;37572;52.094;4.870;2022-12-07T06:57:47;3.10;;;0.90;;
51495;SDS011;37572;52.094;4.870;2022-12-07T07:00:12;2.27;;;1.07;;
51495;SDS011;37572;52.094;4.870;2022-12-07T07:02:37;3.15;;;1.45;;
51495;SDS011;37572;52.094;4.870;2022-12-07T07:05:03;2.67;;;0.93;;
51495;SDS011;37572;52.094;4.870;2022-12-07T07:07:28;6.43;;;1.88;;
51495;SDS011;37572;52.094;4.870;2022-12-07T07:09:53;2.20;;;1.58;;
51495;SDS011;37572;52.094;4.870;2022-12-07T07:12:18;1.43;;;0.70;;
51495;SDS011;37572;52.094;4.870;2022-12-07T07:14:44;3.93;;;0.90;;
51495;SDS011;37572;52.094;4.870;2022-12-07T07:17:09;6.17;;;1.53;;
51495;SDS011;37572;52.094;4.870;2022-12-07T07:19:34;4.40;;;1.30;;
51495;SDS011;37572;52.094;4.870;2022-12-07T07:21:59;5.47;;;1.77;;
51495;SDS011;37572;52.094;4.870;2022-12-07T07:24:24;3.63;;;1.10;;
51495;SDS011;37572;52.094;4.870;2022-12-07T07:26:49;4.70;;;1.20;;
51495;SDS011;37572;52.094;4.870;2022-12-07T07:29:15;4.67;;;1.90;;
51495;SDS011;37572;52.094;4.870;2022-12-07T07:31:40;3.27;;;1.10;;
51495;SDS011;37572;52.094;4.870;2022-12-07T07:34:05;7.50;;;1.70;;
51495;SDS011;37572;52.094;4.870;2022-12-07T07:36:30;5.87;;;1.27;;
51495;SDS011;37572;52.094;4.870;2022-12-07T07:38:55;8.23;;;2.73;;
51495;SDS011;37572;52.094;4.870;2022-12-07T07:41:20;5.83;;;1.93;;
51495;SDS011;37572;52.094;4.870;2022-12-07T07:43:46;5.60;;;1.73;;
51495;SDS011;37572;52.094;4.870;2022-12-07T07:46:11;7.47;;;2.87;;
51495;SDS011;37572;52.094;4.870;2022-12-07T07:48:36;5.43;;;1.50;;
51495;SDS011;37572;52.094;4.870;2022-12-07T07:51:04;3.83;;;2.00;;
51495;SDS011;37572;52.094;4.870;2022-12-07T07:53:29;5.72;;;2.70;;
51495;SDS011;37572;52.094;4.870;2022-12-07T07:55:54;9.37;;;2.97;;
51495;SDS011;37572;52.094;4.870;2022-12-07T07:58:20;4.90;;;2.40;;
51495;SDS011;37572;52.094;4.870;2022-12-07T08:00:45;9.65;;;2.80;;
51495;SDS011;37572;52.094;4.870;2022-12-07T08:03:10;6.63;;;2.20;;
51495;SDS011;37572;52.094;4.870;2022-12-07T08:05:36;8.00;;;2.83;;
51495;SDS011;37572;52.094;4.870;2022-12-07T08:08:01;9.57;;;4.68;;
51495;SDS011;37572;52.094;4.870;2022-12-07T08:10:26;7.87;;;3.00;;
51495;SDS011;37572;52.094;4.870;2022-12-07T08:12:52;6.83;;;2.60;;
51495;SDS011;37572;52.094;4.870;2022-12-07T08:15:36;10.50;;;4.32;;
51495;SDS011;37572;52.094;4.870;2022-12-07T08:18:01;5.47;;;2.88;;
51495;SDS011;37572;52.094;4.870;2022-12-07T08:20:26;6.13;;;2.03;;
51495;SDS011;37572;52.094;4.870;2022-12-07T08:22:51;7.70;;;2.53;;
51495;SDS011;37572;52.094;4.870;2022-12-07T08:25:17;4.60;;;2.13;;
51495;SDS011;37572;52.094;4.870;2022-12-07T08:27:42;7.93;;;1.67;;
51495;SDS011;37572;52.094;4.870;2022-12-07T08:30:07;4.80;;;1.57;;
51495;SDS011;37572;52.094;4.870;2022-12-07T08:32:33;4.07;;;1.80;;
51495;SDS011;37572;52.094;4.870;2022-12-07T08:34:58;6.10;;;1.70;;
51495;SDS011;37572;52.094;4.870;2022-12-07T08:37:23;4.37;;;2.17;;
51495;SDS011;37572;52.094;4.870;2022-12-07T08:39:48;4.20;;;1.63;;
51495;SDS011;37572;52.094;4.870;2022-12-07T08:42:13;3.80;;;1.50;;
51495;SDS011;37572;52.094;4.870;2022-12-07T08:44:39;3.77;;;1.47;;
51495;SDS011;37572;52.094;4.870;2022-12-07T08:47:05;2.80;;;2.22;;
51495;SDS011;37572;52.094;4.870;2022-12-07T08:49:31;3.90;;;1.00;;
51495;SDS011;37572;52.094;4.870;2022-12-07T08:51:58;3.80;;;2.17;;
51495;SDS011;37572;52.094;4.870;2022-12-07T08:54:23;2.27;;;1.40;;
51495;SDS011;37572;52.094;4.870;2022-12-07T08:56:48;4.28;;;1.10;;
51495;SDS011;37572;52.094;4.870;2022-12-07T08:59:14;1.88;;;1.58;;
51495;SDS011;37572;52.094;4.870;2022-12-07T09:01:40;4.32;;;1.85;;
51495;SDS011;37572;52.094;4.870;2022-12-07T09:04:06;6.73;;;1.43;;
51495;SDS011;37572;52.094;4.870;2022-12-07T09:06:31;4.67;;;1.20;;
51495;SDS011;37572;52.094;4.870;2022-12-07T09:08:58;3.10;;;1.27;;
51495;SDS011;37572;52.094;4.870;2022-12-07T09:11:24;5.20;;;1.27;;
51495;SDS011;37572;52.094;4.870;2022-12-07T09:13:49;3.50;;;1.47;;
51495;SDS011;37572;52.094;4.870;2022-12-07T09:16:14;2.50;;;1.10;;
51495;SDS011;37572;52.094;4.870;2022-12-07T09:18:40;2.67;;;1.70;;
51495;SDS011;37572;52.094;4.870;2022-12-07T09:21:05;2.07;;;1.13;;
51495;SDS011;37572;52.094;4.870;2022-12-07T09:23:30;4.83;;;1.30;;
51495;SDS011;37572;52.094;4.870;2022-12-07T09:25:58;6.73;;;1.87;;
51495;SDS011;37572;52.094;4.870;2022-12-07T09:28:23;3.63;;;1.30;;
51495;SDS011;37572;52.094;4.870;2022-12-07T09:30:49;2.07;;;1.23;;
51495;SDS011;37572;52.094;4.870;2022-12-07T09:33:14;2.60;;;1.40;;
51495;SDS011;37572;52.094;4.870;2022-12-07T09:35:45;4.33;;;1.70;;
51495;SDS011;37572;52.094;4.870;2022-12-07T09:38:11;4.28;;;1.60;;
51495;SDS011;37572;52.094;4.870;2022-12-07T09:40:36;4.20;;;2.55;;
51495;SDS011;37572;52.094;4.870;2022-12-07T09:43:01;4.13;;;1.30;;
51495;SDS011;37572;52.094;4.870;2022-12-07T09:45:28;2.90;;;1.73;;
51495;SDS011;37572;52.094;4.870;2022-12-07T09:47:55;4.60;;;1.70;;
51495;SDS011;37572;52.094;4.870;2022-12-07T09:50:23;3.50;;;1.33;;
51495;SDS011;37572;52.094;4.870;2022-12-07T09:52:49;4.25;;;1.38;;
51495;SDS011;37572;52.094;4.870;2022-12-07T09:55:18;4.05;;;1.83;;
51495;SDS011;37572;52.094;4.870;2022-12-07T09:57:46;4.85;;;1.45;;
51495;SDS011;37572;52.094;4.870;2022-12-07T10:00:18;3.23;;;1.77;;
51495;SDS011;37572;52.094;4.870;2022-12-07T10:02:47;2.97;;;1.85;;
51495;SDS011;37572;52.094;4.870;2022-12-07T10:05:14;4.22;;;2.40;;
51495;SDS011;37572;52.094;4.870;2022-12-07T10:07:40;3.72;;;1.40;;
51495;SDS011;37572;52.094;4.870;2022-12-07T10:10:06;6.07;;;1.58;;
51495;SDS011;37572;52.094;4.870;2022-12-07T10:12:56;3.13;;;1.58;;
51495;SDS011;37572;52.094;4.870;2022-12-07T10:15:21;3.60;;;1.30;;
51495;SDS011;37572;52.094;4.870;2022-12-07T10:17:48;3.28;;;1.40;;
51495;SDS011;37572;52.094;4.870;2022-12-07T10:22:44;5.73;;;1.10;;
51495;SDS011;37572;52.094;4.870;2022-12-07T10:25:19;3.47;;;1.73;;
51495;SDS011;37572;52.094;4.870;2022-12-07T10:27:44;3.20;;;1.05;;
51495;SDS011;37572;52.094;4.870;2022-12-07T10:30:21;5.07;;;1.13;;
51495;SDS011;37572;52.094;4.870;2022-12-07T10:32:46;4.80;;;1.33;;
51495;SDS011;37572;52.094;4.870;2022-12-07T10:35:25;4.87;;;1.40;;
51495;SDS011;37572;52.094;4.870;2022-12-07T10:37:51;4.57;;;1.08;;
51495;SDS011;37572;52.094;4.870;2022-12-07T10:40:24;2.85;;;1.42;;
51495;SDS011;37572;52.094;4.870;2022-12-07T10:43:35;3.42;;;1.40;;
51495;SDS011;37572;52.094;4.870;2022-12-07T10:45:35;4.95;;;1.58;;
51495;SDS011;37572;52.094;4.870;2022-12-07T10:50:40;5.07;;;2.33;;
51495;SDS011;37572;52.094;4.870;2022-12-07T10:53:11;4.05;;;1.40;;
51495;SDS011;37572;52.094;4.870;2022-12-07T10:58:30;4.43;;;1.05;;
51495;SDS011;37572;52.094;4.870;2022-12-07T11:01:13;4.07;;;1.50;;
51495;SDS011;37572;52.094;4.870;2022-12-07T11:08:43;3.83;;;1.33;;
51495;SDS011;37572;52.094;4.870;2022-12-07T11:11:14;2.30;;;1.30;;
51495;SDS011;37572;52.094;4.870;2022-12-07T11:14:00;5.10;;;2.13;;
51495;SDS011;37572;52.094;4.870;2022-12-07T11:16:48;5.40;;;1.85;;
51495;SDS011;37572;52.094;4.870;2022-12-07T11:19:41;5.15;;;2.08;;
51495;SDS011;37572;52.094;4.870;2022-12-07T11:25:14;3.45;;;1.38;;
51495;SDS011;37572;52.094;4.870;2022-12-07T11:27:18;4.07;;;1.42;;
51495;SDS011;37572;52.094;4.870;2022-12-07T11:29:51;4.75;;;1.17;;
51495;SDS011;37572;52.094;4.870;2022-12-07T11:32:22;5.38;;;0.82;;
51495;SDS011;37572;52.094;4.870;2022-12-07T11:37:18;3.20;;;1.42;;
51495;SDS011;37572;52.094;4.870;2022-12-07T11:42:35;2.88;;;1.13;;
51495;SDS011;37572;52.094;4.870;2022-12-07T11:47:45;4.53;;;1.23;;
51495;SDS011;37572;52.094;4.870;2022-12-07T11:52:54;5.13;;;1.15;;
51495;SDS011;37572;52.094;4.870;2022-12-07T11:55:23;3.00;;;0.77;;
51495;SDS011;37572;52.094;4.870;2022-12-07T11:57:51;5.85;;;1.42;;
51495;SDS011;37572;52.094;4.870;2022-12-07T12:00:18;4.03;;;1.50;;
51495;SDS011;37572;52.094;4.870;2022-12-07T12:05:18;6.27;;;1.30;;
51495;SDS011;37572;52.094;4.870;2022-12-07T12:07:44;3.58;;;1.35;;
51495;SDS011;37572;52.094;4.870;2022-12-07T12:10:19;7.85;;;1.33;;
51495;SDS011;37572;52.094;4.870;2022-12-07T12:23:07;5.43;;;2.30;;
51495;SDS011;37572;52.094;4.870;2022-12-07T12:25:36;3.63;;;0.63;;
51495;SDS011;37572;52.094;4.870;2022-12-07T12:28:03;2.92;;;1.05;;
51495;SDS011;37572;52.094;4.870;2022-12-07T12:30:33;2.00;;;0.80;;
51495;SDS011;37572;52.094;4.870;2022-12-07T12:33:03;2.50;;;0.80;;
51495;SDS011;37572;52.094;4.870;2022-12-07T12:40:41;3.67;;;1.17;;
51495;SDS011;37572;52.094;4.870;2022-12-07T12:43:38;3.50;;;1.75;;
51495;SDS011;37572;52.094;4.870;2022-12-07T12:45:51;2.90;;;1.13;;
51495;SDS011;37572;52.094;4.870;2022-12-07T12:48:36;3.67;;;1.17;;
51495;SDS011;37572;52.094;4.870;2022-12-07T12:53:45;6.03;;;1.20;;
51495;SDS011;37572;52.094;4.870;2022-12-07T12:56:35;2.90;;;1.17;;
51495;SDS011;37572;52.094;4.870;2022-12-07T13:04:48;3.42;;;1.20;;
51495;SDS011;37572;52.094;4.870;2022-12-07T13:07:47;6.63;;;1.13;;
51495;SDS011;37572;52.094;4.870;2022-12-07T13:10:00;2.63;;;1.05;;
51495;SDS011;37572;52.094;4.870;2022-12-07T13:12:26;3.25;;;1.05;;
51495;SDS011;37572;52.094;4.870;2022-12-07T13:14:53;6.53;;;1.67;;
51495;SDS011;37572;52.094;4.870;2022-12-07T13:19:55;2.88;;;0.60;;
51495;SDS011;37572;52.094;4.870;2022-12-07T13:27:32;0.98;;;0.50;;
51495;SDS011;37572;52.094;4.870;2022-12-07T13:29:58;2.63;;;0.90;;
51495;SDS011;37572;52.094;4.870;2022-12-07T13:32:24;2.43;;;0.67;;
51495;SDS011;37572;52.094;4.870;2022-12-07T13:34:49;1.70;;;0.65;;
51495;SDS011;37572;52.094;4.870;2022-12-07T13:39:54;1.95;;;0.77;;
51495;SDS011;37572;52.094;4.870;2022-12-07T13:42:29;2.00;;;0.90;;
51495;SDS011;37572;52.094;4.870;2022-12-07T13:44:56;2.03;;;1.38;;
51495;SDS011;37572;52.094;4.870;2022-12-07T13:47:30;2.30;;;0.80;;
51495;SDS011;37572;52.094;4.870;2022-12-07T13:49:57;2.78;;;0.80;;
51495;SDS011;37572;52.094;4.870;2022-12-07T13:52:23;3.03;;;1.00;;
51495;SDS011;37572;52.094;4.870;2022-12-07T13:54:54;3.38;;;1.17;;
51495;SDS011;37572;52.094;4.870;2022-12-07T13:57:20;2.92;;;0.68;;
51495;SDS011;37572;52.094;4.870;2022-12-07T13:59:46;2.30;;;0.95;;
51495;SDS011;37572;52.094;4.870;2022-12-07T14:02:18;2.30;;;1.40;;
51495;SDS011;37572;52.094;4.870;2022-12-07T14:04:45;3.72;;;1.48;;
51495;SDS011;37572;52.094;4.870;2022-12-07T14:09:52;2.95;;;1.00;;
51495;SDS011;37572;52.094;4.870;2022-12-07T14:12:19;2.47;;;0.98;;
51495;SDS011;37572;52.094;4.870;2022-12-07T14:14:47;3.07;;;1.00;;
51495;SDS011;37572;52.094;4.870;2022-12-07T14:17:15;3.15;;;0.90;;
51495;SDS011;37572;52.094;4.870;2022-12-07T14:19:42;5.60;;;2.08;;
51495;SDS011;37572;52.094;4.870;2022-12-07T14:22:08;3.72;;;1.30;;
51495;SDS011;37572;52.094;4.870;2022-12-07T14:24:41;3.42;;;1.35;;
51495;SDS011;37572;52.094;4.870;2022-12-07T14:27:15;2.33;;;1.42;;
51495;SDS011;37572;52.094;4.870;2022-12-07T14:29:41;4.00;;;1.20;;
51495;SDS011;37572;52.094;4.870;2022-12-07T14:32:18;3.50;;;1.33;;
51495;SDS011;37572;52.094;4.870;2022-12-07T14:34:54;2.45;;;1.63;;
51495;SDS011;37572;52.094;4.870;2022-12-07T14:37:19;3.65;;;1.65;;
51495;SDS011;37572;52.094;4.870;2022-12-07T14:39:45;2.67;;;1.53;;
51495;SDS011;37572;52.094;4.870;2022-12-07T14:42:10;4.03;;;1.73;;
51495;SDS011;37572;52.094;4.870;2022-12-07T14:44:35;7.43;;;1.47;;
51495;SDS011;37572;52.094;4.870;2022-12-07T14:47:00;4.63;;;1.27;;
51495;SDS011;37572;52.094;4.870;2022-12-07T14:49:26;2.63;;;1.40;;
51495;SDS011;37572;52.094;4.870;2022-12-07T14:51:51;4.07;;;1.27;;
51495;SDS011;37572;52.094;4.870;2022-12-07T14:54:17;2.65;;;1.30;;
51495;SDS011;37572;52.094;4.870;2022-12-07T14:56:43;4.50;;;1.33;;
51495;SDS011;37572;52.094;4.870;2022-12-07T14:59:09;4.18;;;1.35;;
51495;SDS011;37572;52.094;4.870;2022-12-07T15:01:34;3.13;;;1.42;;
51495;SDS011;37572;52.094;4.870;2022-12-07T15:03:59;3.90;;;1.33;;
51495;SDS011;37572;52.094;4.870;2022-12-07T15:06:24;4.93;;;1.63;;
51495;SDS011;37572;52.094;4.870;2022-12-07T15:08:50;3.27;;;1.27;;
51495;SDS011;37572;52.094;4.870;2022-12-07T15:11:15;3.80;;;1.03;;
51495;SDS011;37572;52.094;4.870;2022-12-07T15:13:41;4.82;;;1.80;;
51495;SDS011;37572;52.094;4.870;2022-12-07T15:16:24;3.70;;;1.80;;
51495;SDS011;37572;52.094;4.870;2022-12-07T15:18:50;4.10;;;2.05;;
51495;SDS011;37572;52.094;4.870;2022-12-07T15:21:15;4.68;;;1.70;;
51495;SDS011;37572;52.094;4.870;2022-12-07T15:23:41;4.78;;;1.73;;
51495;SDS011;37572;52.094;4.870;2022-12-07T15:26:06;4.00;;;1.10;;
51495;SDS011;37572;52.094;4.870;2022-12-07T15:28:32;4.40;;;1.95;;
51495;SDS011;37572;52.094;4.870;2022-12-07T15:30:57;2.60;;;1.47;;
51495;SDS011;37572;52.094;4.870;2022-12-07T15:33:23;7.37;;;2.03;;
51495;SDS011;37572;52.094;4.870;2022-12-07T15:35:48;6.03;;;1.50;;
51495;SDS011;37572;52.094;4.870;2022-12-07T15:38:13;4.13;;;1.50;;
51495;SDS011;37572;52.094;4.870;2022-12-07T15:40:38;3.13;;;1.77;;
51495;SDS011;37572;52.094;4.870;2022-12-07T15:43:04;2.63;;;1.50;;
51495;SDS011;37572;52.094;4.870;2022-12-07T15:45:29;3.33;;;0.90;;
51495;SDS011;37572;52.094;4.870;2022-12-07T15:47:54;3.87;;;1.30;;
51495;SDS011;37572;52.094;4.870;2022-12-07T15:50:21;1.95;;;1.05;;
51495;SDS011;37572;52.094;4.870;2022-12-07T15:52:47;2.88;;;1.42;;
51495;SDS011;37572;52.094;4.870;2022-12-07T15:55:12;3.28;;;1.30;;
51495;SDS011;37572;52.094;4.870;2022-12-07T15:57:37;2.40;;;1.33;;
51495;SDS011;37572;52.094;4.870;2022-12-07T16:00:03;4.80;;;1.10;;
51495;SDS011;37572;52.094;4.870;2022-12-07T16:02:29;2.42;;;1.20;;
51495;SDS011;37572;52.094;4.870;2022-12-07T16:04:54;1.97;;;1.00;;
51495;SDS011;37572;52.094;4.870;2022-12-07T16:07:19;2.50;;;1.10;;
51495;SDS011;37572;52.094;4.870;2022-12-07T16:09:45;2.10;;;1.70;;
51495;SDS011;37572;52.094;4.870;2022-12-07T16:12:11;2.78;;;1.65;;
51495;SDS011;37572;52.094;4.870;2022-12-07T16:14:36;5.63;;;2.80;;
51495;SDS011;37572;52.094;4.870;2022-12-07T16:17:02;6.95;;;4.93;;
51495;SDS011;37572;52.094;4.870;2022-12-07T16:19:27;6.33;;;5.13;;